SWA2527 KBWI-KMKE
Flight info
| Callsign | SWA2527 |
|---|---|
| Flight time | 1h 44m |
| Altitude | 32000 |
| Route | LINSE2 MCRAY Q178 DJB J34 CRL DCT PEGEE DCT GETCH DCT LYSTR DCT SUDDS DCT |
| Aircraft | B738/M-SDE2E3FGHIRWXY/LB1 |
Departure
| Time | 2026-04-27 20:48 |
|---|---|
| Airport | Baltimore/Washington International Thurgood Marshall Airport (KBWI) |
Arrival
| Time | 2026-04-27 22:33 |
|---|---|
| Airport | General Mitchell International Airport (KMKE) |
| Time | Latitude | Longitude | Altitude | Speed | Heading |
|---|---|---|---|---|---|
| 2026-04-27 20:05 | 39.17754 | -76.67089 | 159 ft | 0 kts | 79° |
| 2026-04-27 20:35 | 39.17752 | -76.67106 | 150 ft | 1 kts | 73° |
| 2026-04-27 20:35 | 39.17742 | -76.67133 | 150 ft | 4 kts | 47° |
| 2026-04-27 20:35 | 39.17721 | -76.67150 | 152 ft | 4 kts | 3° |
| 2026-04-27 20:35 | 39.17703 | -76.67145 | 153 ft | 0 kts | 324° |
| 2026-04-27 20:42 | 39.17707 | -76.67148 | 153 ft | 2 kts | 324° |
| 2026-04-27 20:42 | 39.17727 | -76.67167 | 152 ft | 6 kts | 323° |
| 2026-04-27 20:42 | 39.17770 | -76.67209 | 153 ft | 9 kts | 323° |
| 2026-04-27 20:42 | 39.17832 | -76.67267 | 152 ft | 13 kts | 326° |
| 2026-04-27 20:43 | 39.17920 | -76.67345 | 150 ft | 17 kts | 325° |
| 2026-04-27 20:43 | 39.18020 | -76.67438 | 152 ft | 18 kts | 324° |
| 2026-04-27 20:43 | 39.18128 | -76.67539 | 153 ft | 20 kts | 324° |
| 2026-04-27 20:43 | 39.18192 | -76.67659 | 155 ft | 15 kts | 265° |
| 2026-04-27 20:44 | 39.18255 | -76.67763 | 155 ft | 17 kts | 325° |
| 2026-04-27 20:44 | 39.18343 | -76.67842 | 154 ft | 7 kts | 324° |
| 2026-04-27 20:44 | 39.18391 | -76.67886 | 155 ft | 9 kts | 324° |
| 2026-04-27 20:44 | 39.18448 | -76.67939 | 155 ft | 11 kts | 324° |
| 2026-04-27 20:45 | 39.18510 | -76.67996 | 155 ft | 11 kts | 324° |
| 2026-04-27 20:45 | 39.18565 | -76.68060 | 154 ft | 11 kts | 301° |
| 2026-04-27 20:45 | 39.18570 | -76.68076 | 154 ft | 0 kts | 287° |
| 2026-04-27 20:46 | 39.18570 | -76.68079 | 154 ft | 1 kts | 286° |
| 2026-04-27 20:46 | 39.18572 | -76.68096 | 154 ft | 3 kts | 273° |
| 2026-04-27 20:47 | 39.18561 | -76.68136 | 154 ft | 7 kts | 236° |
| 2026-04-27 20:47 | 39.18513 | -76.68168 | 154 ft | 9 kts | 173° |
| 2026-04-27 20:47 | 39.18475 | -76.68141 | 154 ft | 1 kts | 144° |
| 2026-04-27 20:47 | 39.18462 | -76.68129 | 154 ft | 7 kts | 144° |
| 2026-04-27 20:48 | 39.18223 | -76.67906 | 157 ft | 79 kts | 144° |
| 2026-04-27 20:48 | 39.17846 | -76.67555 | 155 ft | 122 kts | 145° |
| 2026-04-27 20:48 | 39.16706 | -76.66476 | 455 ft | 169 kts | 144° |
| 2026-04-27 20:48 | 39.15686 | -76.65649 | 1257 ft | 176 kts | 152° |
| 2026-04-27 20:49 | 39.14543 | -76.65164 | 2156 ft | 177 kts | 173° |
| 2026-04-27 20:49 | 39.13288 | -76.65498 | 2651 ft | 200 kts | 205° |
| 2026-04-27 20:49 | 39.12179 | -76.66596 | 3389 ft | 198 kts | 232° |
| 2026-04-27 20:49 | 39.11828 | -76.68323 | 3866 ft | 215 kts | 279° |
| 2026-04-27 20:50 | 39.12014 | -76.70265 | 4151 ft | 229 kts | 258° |
| 2026-04-27 20:50 | 39.11877 | -76.72193 | 5262 ft | 192 kts | 275° |
| 2026-04-27 20:50 | 39.12106 | -76.73696 | 6524 ft | 163 kts | 292° |
| 2026-04-27 20:50 | 39.12675 | -76.75127 | 6619 ft | 204 kts | 304° |
| 2026-04-27 20:51 | 39.13553 | -76.76763 | 6721 ft | 230 kts | 304° |
| 2026-04-27 20:51 | 39.14332 | -76.78419 | 7868 ft | 196 kts | 301° |
| 2026-04-27 20:51 | 39.14925 | -76.79879 | 9038 ft | 182 kts | 298° |
| 2026-04-27 20:51 | 39.15435 | -76.81545 | 8990 ft | 228 kts | 286° |
| 2026-04-27 20:52 | 39.15806 | -76.83742 | 9001 ft | 262 kts | 283° |
| 2026-04-27 20:52 | 39.16191 | -76.86110 | 9441 ft | 278 kts | 284° |
| 2026-04-27 20:52 | 39.16634 | -76.88565 | 10165 ft | 283 kts | 286° |
| 2026-04-27 20:52 | 39.17120 | -76.91018 | 10960 ft | 283 kts | 287° |
| 2026-04-27 20:53 | 39.17640 | -76.93484 | 11727 ft | 285 kts | 288° |
| 2026-04-27 20:53 | 39.18178 | -76.95950 | 12477 ft | 288 kts | 288° |
| 2026-04-27 20:53 | 39.18736 | -76.98451 | 13292 ft | 291 kts | 288° |
| 2026-04-27 20:53 | 39.19303 | -77.00965 | 14098 ft | 293 kts | 288° |
| 2026-04-27 20:54 | 39.20455 | -77.06029 | 15536 ft | 300 kts | 288° |
| 2026-04-27 20:54 | 39.21044 | -77.08619 | 16286 ft | 303 kts | 288° |
| 2026-04-27 20:54 | 39.21653 | -77.11227 | 16818 ft | 305 kts | 292° |
| 2026-04-27 20:55 | 39.22603 | -77.13663 | 17019 ft | 306 kts | 304° |
| 2026-04-27 20:55 | 39.23597 | -77.15363 | 16999 ft | 309 kts | 313° |
| 2026-04-27 20:55 | 39.25170 | -77.17247 | 17016 ft | 307 kts | 320° |
| 2026-04-27 20:55 | 39.26792 | -77.19009 | 17015 ft | 304 kts | 320° |
| 2026-04-27 20:56 | 39.28404 | -77.20749 | 17010 ft | 302 kts | 320° |
| 2026-04-27 20:56 | 39.30008 | -77.22497 | 17010 ft | 301 kts | 320° |
| 2026-04-27 20:56 | 39.31600 | -77.24250 | 17017 ft | 300 kts | 320° |
| 2026-04-27 20:56 | 39.33185 | -77.26003 | 17028 ft | 304 kts | 320° |
| 2026-04-27 20:57 | 39.34840 | -77.27837 | 17159 ft | 323 kts | 319° |
| 2026-04-27 20:57 | 39.36427 | -77.30010 | 17320 ft | 345 kts | 308° |
| 2026-04-27 20:57 | 39.37743 | -77.32711 | 17472 ft | 366 kts | 297° |
| 2026-04-27 20:57 | 39.38776 | -77.35815 | 17658 ft | 384 kts | 293° |
| 2026-04-27 20:58 | 39.39749 | -77.39068 | 18146 ft | 391 kts | 292° |
| 2026-04-27 20:58 | 39.40711 | -77.42372 | 18831 ft | 392 kts | 292° |
| 2026-04-27 20:58 | 39.41676 | -77.45673 | 19444 ft | 394 kts | 292° |
| 2026-04-27 20:58 | 39.42658 | -77.48996 | 20021 ft | 397 kts | 292° |
| 2026-04-27 20:59 | 39.43658 | -77.52342 | 20536 ft | 401 kts | 292° |
| 2026-04-27 20:59 | 39.44671 | -77.55708 | 21104 ft | 403 kts | 292° |
| 2026-04-27 20:59 | 39.45692 | -77.59096 | 21706 ft | 404 kts | 292° |
| 2026-04-27 20:59 | 39.46717 | -77.62495 | 22226 ft | 407 kts | 292° |
| 2026-04-27 21:00 | 39.47746 | -77.65909 | 22725 ft | 410 kts | 292° |
| 2026-04-27 21:00 | 39.48786 | -77.69364 | 23211 ft | 413 kts | 292° |
| 2026-04-27 21:00 | 39.49831 | -77.72842 | 23710 ft | 416 kts | 292° |
| 2026-04-27 21:00 | 39.50879 | -77.76336 | 24134 ft | 418 kts | 292° |
| 2026-04-27 21:01 | 39.51932 | -77.79848 | 24585 ft | 418 kts | 292° |
| 2026-04-27 21:01 | 39.52982 | -77.83358 | 25048 ft | 419 kts | 292° |
| 2026-04-27 21:01 | 39.54039 | -77.86891 | 25480 ft | 420 kts | 292° |
| 2026-04-27 21:01 | 39.55110 | -77.90413 | 25913 ft | 421 kts | 292° |
| 2026-04-27 21:02 | 39.56192 | -77.93932 | 26309 ft | 422 kts | 293° |
| 2026-04-27 21:02 | 39.57286 | -77.97480 | 26699 ft | 424 kts | 293° |
| 2026-04-27 21:02 | 39.58369 | -78.00996 | 27075 ft | 425 kts | 293° |
| 2026-04-27 21:02 | 39.59465 | -78.04562 | 27446 ft | 427 kts | 293° |
| 2026-04-27 21:03 | 39.60560 | -78.08137 | 27812 ft | 428 kts | 293° |
| 2026-04-27 21:03 | 39.61656 | -78.11725 | 28261 ft | 426 kts | 293° |
| 2026-04-27 21:03 | 39.62738 | -78.15273 | 28952 ft | 420 kts | 293° |
| 2026-04-27 21:03 | 39.63804 | -78.18777 | 29503 ft | 418 kts | 294° |
| 2026-04-27 21:04 | 39.64868 | -78.22278 | 29977 ft | 417 kts | 294° |
| 2026-04-27 21:04 | 39.65931 | -78.25778 | 30451 ft | 415 kts | 294° |
| 2026-04-27 21:04 | 39.66985 | -78.29253 | 30840 ft | 414 kts | 294° |
| 2026-04-27 21:04 | 39.68039 | -78.32731 | 31190 ft | 414 kts | 294° |
| 2026-04-27 21:05 | 39.69092 | -78.36211 | 31525 ft | 414 kts | 294° |
| 2026-04-27 21:05 | 39.70142 | -78.39684 | 31850 ft | 415 kts | 295° |
| 2026-04-27 21:05 | 39.71192 | -78.43165 | 32198 ft | 414 kts | 295° |
| 2026-04-27 21:06 | 39.73315 | -78.50208 | 32240 ft | 419 kts | 295° |
| 2026-04-27 21:06 | 39.75420 | -78.57223 | 32227 ft | 413 kts | 294° |
| 2026-04-27 21:07 | 39.77168 | -78.63059 | 32230 ft | 414 kts | 294° |
| 2026-04-27 21:07 | 39.79255 | -78.70039 | 32238 ft | 415 kts | 294° |
| 2026-04-27 21:08 | 39.81326 | -78.76984 | 32239 ft | 415 kts | 294° |
| 2026-04-27 21:08 | 39.83411 | -78.83998 | 32235 ft | 416 kts | 294° |
| 2026-04-27 21:09 | 39.85497 | -78.91030 | 32238 ft | 417 kts | 294° |
| 2026-04-27 21:09 | 39.87581 | -78.98078 | 32230 ft | 418 kts | 293° |
| 2026-04-27 21:10 | 39.89666 | -79.05147 | 32221 ft | 419 kts | 293° |
| 2026-04-27 21:10 | 39.91749 | -79.12228 | 32228 ft | 419 kts | 293° |
| 2026-04-27 21:11 | 39.93830 | -79.19319 | 32207 ft | 419 kts | 293° |
| 2026-04-27 21:11 | 39.95908 | -79.26424 | 32189 ft | 419 kts | 292° |
| 2026-04-27 21:12 | 39.97980 | -79.33523 | 32174 ft | 419 kts | 292° |
| 2026-04-27 21:12 | 40.00085 | -79.40594 | 32160 ft | 418 kts | 296° |
| 2026-04-27 21:13 | 40.03077 | -79.47053 | 32155 ft | 416 kts | 304° |
| 2026-04-27 21:13 | 40.06338 | -79.53282 | 32147 ft | 416 kts | 304° |
| 2026-04-27 21:14 | 40.09578 | -79.59532 | 32150 ft | 415 kts | 304° |
| 2026-04-27 21:14 | 40.12779 | -79.65763 | 32150 ft | 415 kts | 304° |
| 2026-04-27 21:15 | 40.15990 | -79.72039 | 32149 ft | 416 kts | 304° |
| 2026-04-27 21:15 | 40.19201 | -79.78329 | 32124 ft | 416 kts | 304° |
| 2026-04-27 21:16 | 40.22412 | -79.84629 | 32124 ft | 416 kts | 303° |
| 2026-04-27 21:16 | 40.25624 | -79.90946 | 32123 ft | 417 kts | 303° |
| 2026-04-27 21:17 | 40.28836 | -79.97275 | 32120 ft | 418 kts | 303° |
| 2026-04-27 21:17 | 40.32052 | -80.03623 | 32122 ft | 418 kts | 303° |
| 2026-04-27 21:18 | 40.35259 | -80.09976 | 32118 ft | 419 kts | 303° |
| 2026-04-27 21:18 | 40.38461 | -80.16347 | 32114 ft | 419 kts | 303° |
| 2026-04-27 21:19 | 40.41671 | -80.22747 | 32113 ft | 419 kts | 303° |
| 2026-04-27 21:19 | 40.44875 | -80.29143 | 32115 ft | 419 kts | 303° |
| 2026-04-27 21:20 | 40.49679 | -80.38758 | 32111 ft | 420 kts | 303° |
| 2026-04-27 21:20 | 40.52872 | -80.45160 | 32121 ft | 420 kts | 302° |
| 2026-04-27 21:21 | 40.56055 | -80.51557 | 32125 ft | 420 kts | 302° |
| 2026-04-27 21:21 | 40.59247 | -80.57985 | 32123 ft | 420 kts | 302° |
| 2026-04-27 21:22 | 40.62434 | -80.64429 | 32124 ft | 420 kts | 302° |
| 2026-04-27 21:22 | 40.65619 | -80.70885 | 32120 ft | 421 kts | 302° |
| 2026-04-27 21:23 | 40.68804 | -80.77346 | 32133 ft | 420 kts | 302° |
| 2026-04-27 21:23 | 40.71996 | -80.83810 | 32128 ft | 421 kts | 302° |
| 2026-04-27 21:24 | 40.75185 | -80.90283 | 32127 ft | 420 kts | 302° |
| 2026-04-27 21:24 | 40.78365 | -80.96754 | 32126 ft | 420 kts | 302° |
| 2026-04-27 21:25 | 40.81539 | -81.03228 | 32114 ft | 420 kts | 302° |
| 2026-04-27 21:25 | 40.84715 | -81.09718 | 32107 ft | 421 kts | 302° |
| 2026-04-27 21:26 | 40.87887 | -81.16213 | 32110 ft | 421 kts | 302° |
| 2026-04-27 21:26 | 40.91054 | -81.22723 | 32100 ft | 421 kts | 301° |
| 2026-04-27 21:27 | 40.94215 | -81.29238 | 32101 ft | 421 kts | 301° |
| 2026-04-27 21:27 | 40.97382 | -81.35777 | 32106 ft | 422 kts | 301° |
| 2026-04-27 21:28 | 41.00546 | -81.42325 | 32094 ft | 422 kts | 301° |
| 2026-04-27 21:28 | 41.03706 | -81.48878 | 32095 ft | 422 kts | 301° |
| 2026-04-27 21:29 | 41.06862 | -81.55437 | 32090 ft | 422 kts | 301° |
| 2026-04-27 21:29 | 41.10014 | -81.61999 | 32090 ft | 422 kts | 301° |
| 2026-04-27 21:30 | 41.13163 | -81.68564 | 32089 ft | 422 kts | 301° |
| 2026-04-27 21:30 | 41.16307 | -81.75135 | 32085 ft | 422 kts | 301° |
| 2026-04-27 21:31 | 41.19444 | -81.81704 | 32065 ft | 421 kts | 301° |
| 2026-04-27 21:31 | 41.22577 | -81.88281 | 32066 ft | 421 kts | 301° |
| 2026-04-27 21:32 | 41.25704 | -81.94860 | 32057 ft | 421 kts | 301° |
| 2026-04-27 21:32 | 41.28822 | -82.01433 | 32058 ft | 421 kts | 301° |
| 2026-04-27 21:33 | 41.31947 | -82.08037 | 32051 ft | 421 kts | 301° |
| 2026-04-27 21:33 | 41.35057 | -82.14620 | 32056 ft | 420 kts | 300° |
| 2026-04-27 21:34 | 41.38354 | -82.21069 | 32053 ft | 421 kts | 304° |
| 2026-04-27 21:34 | 41.41833 | -82.27353 | 32052 ft | 421 kts | 304° |
| 2026-04-27 21:35 | 41.45289 | -82.33652 | 32049 ft | 421 kts | 304° |
| 2026-04-27 21:35 | 41.48715 | -82.39974 | 32050 ft | 421 kts | 303° |
| 2026-04-27 21:36 | 41.52139 | -82.46310 | 32042 ft | 421 kts | 303° |
| 2026-04-27 21:36 | 41.55557 | -82.52659 | 32027 ft | 421 kts | 303° |
| 2026-04-27 21:37 | 41.58968 | -82.59011 | 32017 ft | 421 kts | 303° |
| 2026-04-27 21:37 | 41.62347 | -82.65318 | 32020 ft | 421 kts | 303° |
| 2026-04-27 21:38 | 41.65748 | -82.71678 | 32017 ft | 421 kts | 303° |
| 2026-04-27 21:38 | 41.69150 | -82.78050 | 32018 ft | 421 kts | 303° |
| 2026-04-27 21:39 | 41.72547 | -82.84435 | 32019 ft | 421 kts | 302° |
| 2026-04-27 21:39 | 41.75934 | -82.90821 | 32017 ft | 421 kts | 302° |
| 2026-04-27 21:40 | 41.79322 | -82.97223 | 32019 ft | 421 kts | 302° |
| 2026-04-27 21:40 | 41.82728 | -83.03672 | 32020 ft | 421 kts | 302° |
| 2026-04-27 21:41 | 41.86085 | -83.10040 | 32020 ft | 421 kts | 302° |
| 2026-04-27 21:41 | 41.89459 | -83.16455 | 32020 ft | 421 kts | 302° |
| 2026-04-27 21:42 | 41.92288 | -83.21845 | 32026 ft | 421 kts | 302° |
| 2026-04-27 21:42 | 41.95216 | -83.27433 | 32031 ft | 421 kts | 301° |
| 2026-04-27 21:43 | 41.98584 | -83.33874 | 32029 ft | 422 kts | 301° |
| 2026-04-27 21:43 | 42.01963 | -83.40349 | 32033 ft | 423 kts | 301° |
| 2026-04-27 21:44 | 42.05460 | -83.46724 | 32019 ft | 427 kts | 308° |
| 2026-04-27 21:44 | 42.09729 | -83.52339 | 32016 ft | 430 kts | 311° |
| 2026-04-27 21:45 | 42.14058 | -83.57872 | 32023 ft | 430 kts | 311° |
| 2026-04-27 21:45 | 42.18387 | -83.63459 | 32017 ft | 430 kts | 311° |
| 2026-04-27 21:46 | 42.22688 | -83.69056 | 32019 ft | 430 kts | 311° |
| 2026-04-27 21:46 | 42.26985 | -83.74673 | 32023 ft | 431 kts | 310° |
| 2026-04-27 21:47 | 42.31296 | -83.80322 | 32015 ft | 431 kts | 310° |
| 2026-04-27 21:47 | 42.35607 | -83.85982 | 32014 ft | 432 kts | 310° |
| 2026-04-27 21:48 | 42.39917 | -83.91651 | 31995 ft | 432 kts | 310° |
| 2026-04-27 21:48 | 42.44230 | -83.97333 | 31998 ft | 433 kts | 310° |
| 2026-04-27 21:49 | 42.48509 | -84.02984 | 32004 ft | 433 kts | 309° |
| 2026-04-27 21:49 | 42.52816 | -84.08682 | 32008 ft | 433 kts | 309° |
| 2026-04-27 21:50 | 42.57120 | -84.14390 | 32004 ft | 433 kts | 309° |
| 2026-04-27 21:50 | 42.61428 | -84.20114 | 31997 ft | 433 kts | 309° |
| 2026-04-27 21:51 | 42.65733 | -84.25845 | 31981 ft | 434 kts | 309° |
| 2026-04-27 21:51 | 42.70042 | -84.31595 | 31981 ft | 435 kts | 309° |
| 2026-04-27 21:52 | 42.74364 | -84.37372 | 31975 ft | 435 kts | 309° |
| 2026-04-27 21:52 | 42.77954 | -84.42180 | 31991 ft | 435 kts | 309° |
| 2026-04-27 21:53 | 42.82267 | -84.47968 | 32003 ft | 436 kts | 308° |
| 2026-04-27 21:53 | 42.86337 | -84.53441 | 31999 ft | 436 kts | 308° |
| 2026-04-27 21:54 | 42.90694 | -84.59310 | 31989 ft | 437 kts | 308° |
| 2026-04-27 21:54 | 42.95016 | -84.65147 | 31973 ft | 438 kts | 308° |
| 2026-04-27 21:55 | 42.99351 | -84.71013 | 31949 ft | 439 kts | 308° |
| 2026-04-27 21:55 | 43.03696 | -84.76904 | 31934 ft | 440 kts | 308° |
| 2026-04-27 21:56 | 43.10223 | -84.85776 | 31907 ft | 442 kts | 308° |
| 2026-04-27 21:56 | 43.12220 | -84.88933 | 31894 ft | 432 kts | 296° |
| 2026-04-27 21:57 | 43.13568 | -84.92536 | 31913 ft | 421 kts | 284° |
| 2026-04-27 21:57 | 43.14564 | -85.00253 | 31919 ft | 409 kts | 267° |
| 2026-04-27 21:58 | 43.14721 | -85.08058 | 31905 ft | 411 kts | 267° |
| 2026-04-27 21:58 | 43.14888 | -85.15887 | 31903 ft | 412 kts | 267° |
| 2026-04-27 21:59 | 43.15081 | -85.23747 | 31900 ft | 413 kts | 267° |
| 2026-04-27 21:59 | 43.15281 | -85.31622 | 31896 ft | 413 kts | 267° |
| 2026-04-27 22:00 | 43.15478 | -85.39487 | 31894 ft | 413 kts | 267° |
| 2026-04-27 22:00 | 43.15668 | -85.47346 | 31875 ft | 413 kts | 267° |
| 2026-04-27 22:01 | 43.15851 | -85.55149 | 31873 ft | 412 kts | 266° |
| 2026-04-27 22:01 | 43.16030 | -85.62987 | 31871 ft | 411 kts | 266° |
| 2026-04-27 22:02 | 43.16205 | -85.70705 | 31355 ft | 399 kts | 266° |
| 2026-04-27 22:02 | 43.16287 | -85.74512 | 30601 ft | 401 kts | 266° |
| 2026-04-27 22:02 | 43.16366 | -85.78356 | 29620 ft | 407 kts | 267° |
| 2026-04-27 22:02 | 43.16445 | -85.82255 | 28539 ft | 412 kts | 267° |
| 2026-04-27 22:03 | 43.16525 | -85.86194 | 27501 ft | 415 kts | 267° |
| 2026-04-27 22:03 | 43.16605 | -85.90151 | 26482 ft | 417 kts | 269° |
| 2026-04-27 22:03 | 43.16685 | -85.94123 | 25493 ft | 419 kts | 268° |
| 2026-04-27 22:03 | 43.16766 | -85.98104 | 24736 ft | 415 kts | 268° |
| 2026-04-27 22:04 | 43.16844 | -86.02001 | 24447 ft | 401 kts | 268° |
| 2026-04-27 22:04 | 43.16916 | -86.05725 | 24339 ft | 382 kts | 267° |
| 2026-04-27 22:04 | 43.16917 | -86.09288 | 24209 ft | 366 kts | 265° |
| 2026-04-27 22:04 | 43.16869 | -86.12721 | 23829 ft | 359 kts | 264° |
| 2026-04-27 22:05 | 43.16803 | -86.16146 | 23275 ft | 358 kts | 264° |
| 2026-04-27 22:05 | 43.16735 | -86.19549 | 22628 ft | 357 kts | 264° |
| 2026-04-27 22:05 | 43.16671 | -86.22937 | 22017 ft | 355 kts | 264° |
| 2026-04-27 22:05 | 43.16613 | -86.26291 | 21463 ft | 352 kts | 264° |
| 2026-04-27 22:06 | 43.16557 | -86.29630 | 20919 ft | 349 kts | 264° |
| 2026-04-27 22:06 | 43.16503 | -86.32950 | 20369 ft | 347 kts | 264° |
| 2026-04-27 22:06 | 43.16450 | -86.36249 | 19811 ft | 346 kts | 264° |
| 2026-04-27 22:06 | 43.16396 | -86.39536 | 19279 ft | 345 kts | 264° |
| 2026-04-27 22:07 | 43.16343 | -86.42805 | 18771 ft | 343 kts | 264° |
| 2026-04-27 22:07 | 43.16288 | -86.46065 | 18270 ft | 341 kts | 264° |
| 2026-04-27 22:07 | 43.16234 | -86.49308 | 17706 ft | 340 kts | 264° |
| 2026-04-27 22:07 | 43.16178 | -86.52539 | 17138 ft | 339 kts | 264° |
| 2026-04-27 22:08 | 43.16122 | -86.55751 | 16587 ft | 337 kts | 264° |
| 2026-04-27 22:08 | 43.16066 | -86.58960 | 16040 ft | 336 kts | 264° |
| 2026-04-27 22:08 | 43.16008 | -86.62155 | 15522 ft | 334 kts | 264° |
| 2026-04-27 22:08 | 43.15951 | -86.65290 | 15011 ft | 333 kts | 264° |
| 2026-04-27 22:09 | 43.15892 | -86.68458 | 14503 ft | 332 kts | 264° |
| 2026-04-27 22:09 | 43.15833 | -86.71626 | 14000 ft | 331 kts | 264° |
| 2026-04-27 22:09 | 43.15773 | -86.74765 | 13506 ft | 330 kts | 263° |
| 2026-04-27 22:09 | 43.15712 | -86.77898 | 12978 ft | 328 kts | 263° |
| 2026-04-27 22:10 | 43.15652 | -86.81013 | 12476 ft | 326 kts | 263° |
| 2026-04-27 22:10 | 43.15611 | -86.83068 | 12148 ft | 325 kts | 263° |
| 2026-04-27 22:10 | 43.15528 | -86.87199 | 11476 ft | 323 kts | 262° |
| 2026-04-27 22:10 | 43.15465 | -86.90270 | 10980 ft | 322 kts | 262° |
| 2026-04-27 22:11 | 43.15402 | -86.93331 | 10483 ft | 321 kts | 262° |
| 2026-04-27 22:11 | 43.15338 | -86.96384 | 10009 ft | 320 kts | 262° |
| 2026-04-27 22:11 | 43.15274 | -86.99409 | 9555 ft | 318 kts | 261° |
| 2026-04-27 22:11 | 43.15210 | -87.02409 | 9080 ft | 317 kts | 261° |
| 2026-04-27 22:12 | 43.15146 | -87.05405 | 8959 ft | 304 kts | 261° |
| 2026-04-27 22:12 | 43.15086 | -87.08235 | 8852 ft | 291 kts | 261° |
| 2026-04-27 22:12 | 43.15027 | -87.10947 | 8773 ft | 279 kts | 261° |
| 2026-04-27 22:12 | 43.14995 | -87.12376 | 8726 ft | 273 kts | 260° |
| 2026-04-27 22:14 | 43.14989 | -87.12605 | 8701 ft | 272 kts | 261° |
| 2026-04-27 22:14 | 43.14930 | -87.15167 | 8620 ft | 261 kts | 260° |
| 2026-04-27 22:14 | 43.14871 | -87.17623 | 8410 ft | 256 kts | 260° |
| 2026-04-27 22:14 | 43.14810 | -87.20031 | 8112 ft | 256 kts | 260° |
| 2026-04-27 22:15 | 43.14748 | -87.22499 | 7808 ft | 255 kts | 260° |
| 2026-04-27 22:15 | 43.14688 | -87.24891 | 7541 ft | 254 kts | 261° |
| 2026-04-27 22:15 | 43.14629 | -87.27302 | 7293 ft | 254 kts | 261° |
| 2026-04-27 22:15 | 43.14570 | -87.29716 | 7054 ft | 252 kts | 261° |
| 2026-04-27 22:16 | 43.14510 | -87.32144 | 6776 ft | 251 kts | 261° |
| 2026-04-27 22:16 | 43.14451 | -87.34498 | 6504 ft | 250 kts | 261° |
| 2026-04-27 22:16 | 43.14404 | -87.36870 | 6239 ft | 250 kts | 264° |
| 2026-04-27 22:16 | 43.14527 | -87.39267 | 5938 ft | 252 kts | 269° |
| 2026-04-27 22:17 | 43.14719 | -87.41626 | 5636 ft | 252 kts | 270° |
| 2026-04-27 22:17 | 43.14923 | -87.44002 | 5369 ft | 250 kts | 269° |
| 2026-04-27 22:17 | 43.15120 | -87.46341 | 5222 ft | 243 kts | 269° |
| 2026-04-27 22:17 | 43.15307 | -87.48595 | 5151 ft | 233 kts | 269° |
| 2026-04-27 22:18 | 43.15482 | -87.50759 | 5080 ft | 224 kts | 268° |
| 2026-04-27 22:18 | 43.15646 | -87.52835 | 4951 ft | 217 kts | 268° |
| 2026-04-27 22:18 | 43.15804 | -87.54889 | 4700 ft | 217 kts | 268° |
| 2026-04-27 22:18 | 43.15960 | -87.56946 | 4454 ft | 218 kts | 268° |
| 2026-04-27 22:19 | 43.16116 | -87.59008 | 4304 ft | 216 kts | 268° |
| 2026-04-27 22:19 | 43.16269 | -87.61011 | 4247 ft | 205 kts | 267° |
| 2026-04-27 22:19 | 43.16415 | -87.62893 | 4128 ft | 194 kts | 266° |
| 2026-04-27 22:19 | 43.16551 | -87.64714 | 3856 ft | 192 kts | 266° |
| 2026-04-27 22:20 | 43.16687 | -87.66560 | 3525 ft | 194 kts | 265° |
| 2026-04-27 22:20 | 43.16821 | -87.68399 | 3206 ft | 195 kts | 265° |
| 2026-04-27 22:20 | 43.16958 | -87.70260 | 2964 ft | 197 kts | 264° |
| 2026-04-27 22:20 | 43.17096 | -87.72153 | 2955 ft | 201 kts | 265° |
| 2026-04-27 22:21 | 43.17236 | -87.74046 | 2917 ft | 199 kts | 265° |
| 2026-04-27 22:21 | 43.17377 | -87.75929 | 2903 ft | 197 kts | 265° |
| 2026-04-27 22:21 | 43.17515 | -87.77790 | 2908 ft | 196 kts | 265° |
| 2026-04-27 22:21 | 43.17651 | -87.79648 | 2925 ft | 196 kts | 265° |
| 2026-04-27 22:22 | 43.17787 | -87.81515 | 2918 ft | 198 kts | 265° |
| 2026-04-27 22:22 | 43.17923 | -87.83397 | 2905 ft | 200 kts | 265° |
| 2026-04-27 22:22 | 43.18060 | -87.85274 | 2918 ft | 201 kts | 265° |
| 2026-04-27 22:22 | 43.18197 | -87.87184 | 2926 ft | 202 kts | 265° |
| 2026-04-27 22:23 | 43.18336 | -87.89089 | 2923 ft | 199 kts | 266° |
| 2026-04-27 22:23 | 43.18820 | -87.90899 | 2901 ft | 212 kts | 300° |
| 2026-04-27 22:23 | 43.19986 | -87.92200 | 2918 ft | 225 kts | 333° |
| 2026-04-27 22:23 | 43.21533 | -87.92596 | 2935 ft | 229 kts | 4° |
| 2026-04-27 22:24 | 43.23130 | -87.92403 | 2918 ft | 229 kts | 12° |
| 2026-04-27 22:24 | 43.24535 | -87.91549 | 2907 ft | 216 kts | 49° |
| 2026-04-27 22:24 | 43.25327 | -87.89937 | 2923 ft | 198 kts | 81° |
| 2026-04-27 22:24 | 43.25466 | -87.88150 | 2926 ft | 183 kts | 108° |
| 2026-04-27 22:25 | 43.25038 | -87.86579 | 2908 ft | 172 kts | 131° |
| 2026-04-27 22:25 | 43.24201 | -87.85473 | 2910 ft | 165 kts | 152° |
| 2026-04-27 22:25 | 43.23134 | -87.84965 | 2900 ft | 164 kts | 179° |
| 2026-04-27 22:25 | 43.22012 | -87.85021 | 2900 ft | 159 kts | 180° |
| 2026-04-27 22:26 | 43.20926 | -87.85095 | 2901 ft | 154 kts | 183° |
| 2026-04-27 22:26 | 43.19854 | -87.85222 | 2896 ft | 154 kts | 183° |
| 2026-04-27 22:26 | 43.18800 | -87.85376 | 2904 ft | 153 kts | 183° |
| 2026-04-27 22:26 | 43.17739 | -87.85543 | 2911 ft | 153 kts | 184° |
| 2026-04-27 22:27 | 43.16685 | -87.85717 | 2919 ft | 152 kts | 185° |
| 2026-04-27 22:27 | 43.15612 | -87.85899 | 2814 ft | 155 kts | 185° |
| 2026-04-27 22:27 | 43.14575 | -87.86077 | 2811 ft | 147 kts | 185° |
| 2026-04-27 22:27 | 43.13570 | -87.86249 | 2816 ft | 145 kts | 184° |
| 2026-04-27 22:28 | 43.12579 | -87.86419 | 2808 ft | 141 kts | 184° |
| 2026-04-27 22:28 | 43.11618 | -87.86583 | 2790 ft | 139 kts | 184° |
| 2026-04-27 22:28 | 43.10678 | -87.86744 | 2793 ft | 136 kts | 184° |
| 2026-04-27 22:28 | 43.09759 | -87.86902 | 2799 ft | 129 kts | 184° |
| 2026-04-27 22:29 | 43.08873 | -87.87054 | 2802 ft | 126 kts | 184° |
| 2026-04-27 22:29 | 43.07989 | -87.87205 | 2810 ft | 129 kts | 185° |
| 2026-04-27 22:29 | 43.07102 | -87.87357 | 2781 ft | 131 kts | 184° |
| 2026-04-27 22:29 | 43.06192 | -87.87512 | 2621 ft | 134 kts | 184° |
| 2026-04-27 22:30 | 43.05280 | -87.87669 | 2439 ft | 129 kts | 183° |
| 2026-04-27 22:30 | 43.04421 | -87.87817 | 2286 ft | 124 kts | 182° |
| 2026-04-27 22:30 | 43.03563 | -87.87963 | 2122 ft | 125 kts | 183° |
| 2026-04-27 22:30 | 43.02690 | -87.88114 | 1940 ft | 128 kts | 182° |
| 2026-04-27 22:31 | 43.01805 | -87.88265 | 1775 ft | 128 kts | 182° |
| 2026-04-27 22:31 | 43.00929 | -87.88415 | 1598 ft | 125 kts | 182° |
| 2026-04-27 22:31 | 43.00063 | -87.88566 | 1450 ft | 128 kts | 182° |
| 2026-04-27 22:31 | 42.99159 | -87.88727 | 1316 ft | 135 kts | 184° |
| 2026-04-27 22:32 | 42.98214 | -87.88876 | 1202 ft | 138 kts | 185° |
| 2026-04-27 22:32 | 42.97255 | -87.89048 | 1039 ft | 139 kts | 184° |
| 2026-04-27 22:32 | 42.96291 | -87.89220 | 920 ft | 141 kts | 185° |
| 2026-04-27 22:32 | 42.95296 | -87.89379 | 720 ft | 144 kts | 186° |
| 2026-04-27 22:33 | 42.94367 | -87.89538 | 687 ft | 121 kts | 185° |
| 2026-04-27 22:33 | 42.93775 | -87.89635 | 685 ft | 58 kts | 186° |
| 2026-04-27 22:33 | 42.93556 | -87.89739 | 686 ft | 24 kts | 250° |
| 2026-04-27 22:33 | 42.93587 | -87.89887 | 685 ft | 3 kts | 336° |
| 2026-04-27 22:34 | 42.93590 | -87.89887 | 684 ft | 0 kts | 349° |
| 2026-04-27 22:40 | 42.93591 | -87.89887 | 687 ft | 1 kts | 349° |
| 2026-04-27 22:41 | 42.93607 | -87.89890 | 681 ft | 4 kts | 354° |
| 2026-04-27 22:41 | 42.93642 | -87.89891 | 684 ft | 6 kts | 0° |
| 2026-04-27 22:41 | 42.93693 | -87.89890 | 687 ft | 9 kts | 0° |
| 2026-04-27 22:41 | 42.93736 | -87.89890 | 685 ft | 1 kts | 0° |
| 2026-04-27 22:42 | 42.93749 | -87.89890 | 683 ft | 0 kts | 0° |
| 2026-04-27 22:42 | 42.93764 | -87.89890 | 685 ft | 4 kts | 0° |
| 2026-04-27 22:42 | 42.93803 | -87.89889 | 684 ft | 7 kts | 0° |
| 2026-04-27 22:42 | 42.93864 | -87.89888 | 683 ft | 11 kts | 0° |
| 2026-04-27 22:43 | 42.93944 | -87.89888 | 684 ft | 11 kts | 0° |
| 2026-04-27 22:43 | 42.94037 | -87.89886 | 683 ft | 15 kts | 0° |
| 2026-04-27 22:43 | 42.94149 | -87.89889 | 684 ft | 14 kts | 353° |
| 2026-04-27 22:43 | 42.94255 | -87.89915 | 683 ft | 10 kts | 350° |
| 2026-04-27 22:44 | 42.94337 | -87.89934 | 685 ft | 13 kts | 349° |
| 2026-04-27 22:44 | 42.94434 | -87.89959 | 685 ft | 14 kts | 350° |
| 2026-04-27 22:44 | 42.94521 | -87.89947 | 681 ft | 12 kts | 45° |
| 2026-04-27 22:44 | 42.94568 | -87.89839 | 685 ft | 14 kts | 60° |
| 2026-04-27 22:45 | 42.94646 | -87.89748 | 685 ft | 16 kts | 19° |
| 2026-04-27 22:45 | 42.94742 | -87.89727 | 684 ft | 9 kts | 7° |
| 2026-04-27 22:45 | 42.94813 | -87.89716 | 684 ft | 11 kts | 7° |
| 2026-04-27 22:45 | 42.94900 | -87.89704 | 685 ft | 14 kts | 0° |
| 2026-04-27 22:46 | 42.94973 | -87.89764 | 684 ft | 12 kts | 316° |
| 2026-04-27 22:46 | 42.95036 | -87.89848 | 687 ft | 13 kts | 316° |
| 2026-04-27 22:46 | 42.95108 | -87.89922 | 687 ft | 11 kts | 320° |
| 2026-04-27 22:46 | 42.95137 | -87.89970 | 687 ft | 5 kts | 277° |
| 2026-04-27 22:47 | 42.95134 | -87.89978 | 686 ft | 1 kts | 246° |
| 2026-04-27 22:47 | 42.95126 | -87.89996 | 687 ft | 3 kts | 235° |
| 2026-04-27 22:47 | 42.95115 | -87.90015 | 682 ft | 2 kts | 230° |
| 2026-04-27 22:47 | 42.95107 | -87.90028 | 687 ft | 0 kts | 229° |
| 2026-04-27 22:48 | 42.95106 | -87.90031 | 684 ft | 0 kts | 229° |